Time;durP1;ratioP1;P1;durP2;ratioP2;P2;SDS_P1;SDS_P2;PMS_P1;PMS_P2;Temp;Humidity;BMP_temperature;BMP_pressure;BME280_temperature;BME280_humidity;BME280_pressure;Samples;Min_cycle;Max_cycle;Signal;HPM_P1;HPM_P2
2023/05/01 00:02:20;;;;;;;9.10;8.27;;;15.40;99.90;;;;;;5022974;28;20441;-65
2023/05/01 00:04:45;;;;;;;9.60;8.50;;;15.40;99.90;;;;;;5023476;28;21013;-65
2023/05/01 00:07:11;;;;;;;9.13;8.13;;;15.40;99.90;;;;;;5021579;28;21614;-65
2023/05/01 00:09:37;;;;;;;9.37;8.37;;;15.30;99.90;;;;;;5019328;28;20590;-65
2023/05/01 00:12:03;;;;;;;10.10;8.20;;;15.30;99.90;;;;;;5019228;28;20203;-65
2023/05/01 00:14:29;;;;;;;9.30;8.40;;;15.30;99.90;;;;;;5017568;28;20189;-65
2023/05/01 00:16:55;;;;;;;9.77;8.83;;;15.30;99.90;;;;;;5023829;28;20467;-66
2023/05/01 00:19:20;;;;;;;8.90;8.10;;;15.30;99.90;;;;;;5016299;28;20451;-66
2023/05/01 00:21:47;;;;;;;10.30;8.70;;;15.30;99.90;;;;;;5024482;28;20200;-66
2023/05/01 00:24:14;;;;;;;9.77;8.63;;;15.30;99.90;;;;;;5023093;28;20181;-66
2023/05/01 00:26:39;;;;;;;8.77;7.87;;;15.30;99.90;;;;;;5013083;28;20812;-66
2023/05/01 00:29:06;;;;;;;9.60;7.80;;;15.30;99.90;;;;;;5021198;28;20458;-66
2023/05/01 00:31:31;;;;;;;11.20;9.40;;;15.20;99.90;;;;;;5021422;28;20188;-66
2023/05/01 00:33:57;;;;;;;9.13;8.23;;;15.20;99.90;;;;;;5022528;28;20489;-67
2023/05/01 00:36:22;;;;;;;9.80;8.90;;;15.20;99.90;;;;;;5020567;28;20227;-66
2023/05/01 00:38:48;;;;;;;9.47;8.60;;;15.20;99.90;;;;;;5020150;28;20279;-66
2023/05/01 00:41:14;;;;;;;9.23;8.33;;;15.20;99.90;;;;;;5023411;28;20524;-66
2023/05/01 00:43:39;;;;;;;9.13;8.30;;;15.20;99.90;;;;;;5020803;28;23220;-66
2023/05/01 00:46:06;;;;;;;10.10;8.30;;;15.20;99.90;;;;;;5023055;28;20239;-66
2023/05/01 00:48:31;;;;;;;10.23;8.77;;;15.20;99.90;;;;;;5020156;28;20201;-66
2023/05/01 00:50:59;;;;;;;9.03;8.13;;;15.20;99.90;;;;;;5019853;28;20442;-66
2023/05/01 00:53:26;;;;;;;10.03;8.00;;;15.20;99.90;;;;;;5022900;28;20600;-66
2023/05/01 00:55:55;;;;;;;9.03;8.13;;;15.20;99.90;;;;;;5019385;28;20427;-66
2023/05/01 00:58:20;;;;;;;10.57;8.50;;;15.20;99.90;;;;;;5020176;28;20468;-66
2023/05/01 01:00:48;;;;;;;8.80;7.90;;;15.10;99.90;;;;;;5021993;28;20477;-66
2023/05/01 01:03:13;;;;;;;8.93;8.03;;;15.10;99.90;;;;;;5024965;28;20180;-66
2023/05/01 01:05:54;;;;;;;9.20;8.30;;;15.20;99.90;;;;;;5022015;28;20450;-66
2023/05/01 01:08:28;;;;;;;8.50;7.70;;;15.10;99.90;;;;;;5021288;28;20208;-66
2023/05/01 01:10:58;;;;;;;11.73;8.00;;;15.10;99.90;;;;;;5019442;28;20474;-66
2023/05/01 01:13:41;;;;;;;7.47;6.77;;;15.10;99.90;;;;;;5015756;28;20427;-66
2023/05/01 01:16:32;;;;;;;8.13;7.40;;;15.10;99.90;;;;;;5021879;28;20920;-66
2023/05/01 01:19:21;;;;;;;8.50;7.60;;;15.10;99.90;;;;;;5016229;28;20489;-66
2023/05/01 01:21:53;;;;;;;8.03;7.10;;;15.10;99.90;;;;;;5018000;28;20423;-66
2023/05/01 01:24:47;;;;;;;9.20;8.20;;;15.00;99.90;;;;;;5018527;28;20473;-66
2023/05/01 01:27:57;;;;;;;8.63;7.00;;;15.00;99.90;;;;;;5024659;28;20847;-66
2023/05/01 01:30:28;;;;;;;7.90;7.10;;;15.00;99.90;;;;;;5021509;28;20982;-66
2023/05/01 01:33:16;;;;;;;8.37;7.63;;;15.00;99.90;;;;;;5023275;28;20447;-66
2023/05/01 01:35:52;;;;;;;8.80;7.27;;;15.00;99.90;;;;;;5018846;28;20430;-66
2023/05/01 01:38:33;;;;;;;8.43;6.87;;;15.00;99.90;;;;;;5018897;28;20478;-66
2023/05/01 01:41:06;;;;;;;8.80;7.10;;;15.00;99.90;;;;;;5019836;28;20428;-66
2023/05/01 01:43:39;;;;;;;8.27;7.47;;;15.00;99.90;;;;;;5018032;28;20948;-66
2023/05/01 01:46:07;;;;;;;7.83;7.13;;;15.00;99.90;;;;;;5015491;28;20410;-66
2023/05/01 01:48:35;;;;;;;7.50;6.80;;;15.00;99.90;;;;;;5025531;28;21175;-66
2023/05/01 01:51:07;;;;;;;7.90;6.80;;;15.00;99.90;;;;;;5024288;28;20410;-66
2023/05/01 01:53:36;;;;;;;7.90;7.10;;;15.00;99.90;;;;;;5023789;28;20799;-66
2023/05/01 01:56:03;;;;;;;8.37;7.60;;;15.00;99.90;;;;;;5022422;28;20423;-66
2023/05/01 01:58:30;;;;;;;8.40;7.23;;;15.00;99.90;;;;;;5019900;28;20454;-66
2023/05/01 02:00:57;;;;;;;6.90;6.30;;;14.90;99.90;;;;;;5018574;28;20463;-66
2023/05/01 02:03:23;;;;;;;8.23;7.40;;;14.90;99.90;;;;;;5024202;28;20431;-66
2023/05/01 02:05:50;;;;;;;7.77;6.20;;;14.90;99.90;;;;;;5023049;28;20411;-66
2023/05/01 02:08:18;;;;;;;7.03;6.37;;;14.90;99.90;;;;;;5026260;28;20493;-66
2023/05/01 02:10:46;;;;;;;8.37;7.53;;;14.90;99.90;;;;;;5025788;28;20520;-66
2023/05/01 02:13:13;;;;;;;7.50;6.10;;;14.90;99.90;;;;;;5018692;28;20458;-66
2023/05/01 02:15:39;;;;;;;8.70;6.97;;;14.90;99.90;;;;;;5022998;28;20422;-66
2023/05/01 02:18:06;;;;;;;7.67;6.87;;;14.90;99.90;;;;;;5018427;28;20981;-66
2023/05/01 02:20:32;;;;;;;8.30;7.47;;;14.90;99.90;;;;;;5024053;28;20844;-66
2023/05/01 02:22:58;;;;;;;8.20;7.40;;;14.90;99.90;;;;;;5021081;28;20809;-66
2023/05/01 02:25:26;;;;;;;7.97;7.17;;;14.90;99.90;;;;;;5022547;28;20932;-66
2023/05/01 02:27:58;;;;;;;7.40;6.70;;;14.90;99.90;;;;;;5021295;28;20566;-66
2023/05/01 02:30:24;;;;;;;7.60;6.57;;;14.90;99.90;;;;;;5022240;28;20903;-66
2023/05/01 02:32:50;;;;;;;8.60;7.70;;;14.90;99.90;;;;;;5026589;28;20467;-66
2023/05/01 02:35:16;;;;;;;7.93;7.13;;;14.80;99.90;;;;;;5021456;28;20263;-66
2023/05/01 02:37:43;;;;;;;6.97;6.30;;;14.80;99.90;;;;;;5025336;28;20824;-66
2023/05/01 02:40:11;;;;;;;8.10;6.93;;;14.80;99.90;;;;;;5020825;28;20466;-66
2023/05/01 02:42:38;;;;;;;7.60;6.90;;;14.80;99.90;;;;;;5021421;28;20426;-66
2023/05/01 02:45:07;;;;;;;8.00;6.80;;;14.80;99.90;;;;;;5026702;28;20415;-66
2023/05/01 02:47:38;;;;;;;8.23;7.40;;;14.80;99.90;;;;;;5025471;28;20478;-66
2023/05/01 02:50:05;;;;;;;9.30;7.10;;;14.70;99.90;;;;;;5022504;28;20427;-66
2023/05/01 02:52:30;;;;;;;9.20;6.80;;;14.70;99.90;;;;;;5024123;28;20427;-66
2023/05/01 02:54:56;;;;;;;8.60;7.80;;;14.70;99.90;;;;;;5019868;28;20494;-66
2023/05/01 02:57:22;;;;;;;14.77;8.33;;;14.70;99.90;;;;;;5020679;28;20558;-66
2023/05/01 02:59:48;;;;;;;8.43;7.70;;;14.70;99.90;;;;;;5019024;28;20200;-66
2023/05/01 03:02:14;;;;;;;8.90;7.90;;;14.60;99.90;;;;;;5027690;28;20442;-66
2023/05/01 03:04:41;;;;;;;8.50;7.47;;;14.60;99.90;;;;;;5022711;28;20662;-66
2023/05/01 03:07:07;;;;;;;9.50;8.10;;;14.60;99.90;;;;;;5022208;28;20788;-66
2023/05/01 03:09:32;;;;;;;9.13;8.23;;;14.50;99.90;;;;;;5021773;28;20463;-66
2023/05/01 03:11:58;;;;;;;9.10;7.60;;;14.60;99.90;;;;;;5022547;28;20435;-66
2023/05/01 03:14:24;;;;;;;8.27;7.47;;;14.50;99.90;;;;;;5023466;28;20268;-66
2023/05/01 03:16:49;;;;;;;9.23;8.33;;;14.50;99.90;;;;;;5022566;28;20205;-66
2023/05/01 03:19:15;;;;;;;8.73;7.93;;;14.50;99.90;;;;;;5021824;28;20751;-67
2023/05/01 03:21:40;;;;;;;10.07;9.07;;;14.50;99.90;;;;;;5024201;28;20179;-66
2023/05/01 03:24:06;;;;;;;9.50;8.30;;;14.50;99.90;;;;;;5020191;28;20283;-67
2023/05/01 03:26:32;;;;;;;8.83;8.03;;;14.50;99.90;;;;;;5029028;28;20172;-67
2023/05/01 03:28:58;;;;;;;8.67;7.77;;;14.50;99.90;;;;;;5017360;28;20471;-67
2023/05/01 03:31:23;;;;;;;8.87;7.57;;;14.50;99.90;;;;;;5022358;28;20263;-66
2023/05/01 03:33:49;;;;;;;8.33;7.53;;;14.50;99.90;;;;;;5023704;28;20185;-66
2023/05/01 03:36:15;;;;;;;10.67;8.50;;;14.50;99.90;;;;;;5021056;28;20199;-66
2023/05/01 03:38:41;;;;;;;9.17;8.27;;;14.50;99.90;;;;;;5023201;28;20833;-66
2023/05/01 03:41:07;;;;;;;9.47;8.50;;;14.50;99.90;;;;;;5021538;28;20618;-67
2023/05/01 03:43:32;;;;;;;10.10;9.20;;;14.50;99.90;;;;;;5020572;28;20231;-67
2023/05/01 03:45:58;;;;;;;10.20;8.57;;;14.50;99.90;;;;;;5025589;28;20602;-66
2023/05/01 03:48:24;;;;;;;9.70;8.80;;;14.50;99.90;;;;;;5020594;28;20215;-66
2023/05/01 03:50:50;;;;;;;8.93;7.83;;;14.60;99.90;;;;;;5024521;28;20203;-67
2023/05/01 03:53:16;;;;;;;9.40;8.50;;;14.60;99.90;;;;;;5020043;28;20481;-67
2023/05/01 03:55:42;;;;;;;9.23;8.20;;;14.60;99.90;;;;;;5021999;28;20966;-67
2023/05/01 03:58:09;;;;;;;9.43;8.10;;;14.60;99.90;;;;;;5019749;28;20224;-67
2023/05/01 04:00:35;;;;;;;12.20;8.63;;;14.50;99.90;;;;;;5021017;28;20598;-67
2023/05/01 04:03:00;;;;;;;9.17;8.33;;;14.50;99.90;;;;;;5021705;28;20426;-67
2023/05/01 04:05:26;;;;;;;9.20;8.30;;;14.50;99.90;;;;;;5022080;28;20211;-67
2023/05/01 04:07:51;;;;;;;9.47;8.30;;;14.50;99.90;;;;;;5020877;28;20208;-67
2023/05/01 04:10:17;;;;;;;8.47;7.60;;;14.50;99.90;;;;;;5019892;28;20218;-67
2023/05/01 04:12:42;;;;;;;9.33;8.43;;;14.50;99.90;;;;;;5020672;28;20279;-67
2023/05/01 04:15:08;;;;;;;11.10;8.33;;;14.50;99.90;;;;;;5027068;28;20199;-67
2023/05/01 04:17:37;;;;;;;8.07;7.27;;;14.40;99.90;;;;;;5022673;28;20587;-67
2023/05/01 04:20:05;;;;;;;9.63;8.40;;;14.40;99.90;;;;;;5023228;28;20518;-67
2023/05/01 04:22:30;;;;;;;8.37;7.67;;;14.40;99.90;;;;;;5021942;28;20457;-67
2023/05/01 04:24:56;;;;;;;10.60;9.60;;;14.40;99.90;;;;;;5024520;28;20956;-67
2023/05/01 04:27:22;;;;;;;10.17;8.00;;;14.40;99.90;;;;;;5020651;28;20184;-67
2023/05/01 04:29:47;;;;;;;10.20;8.67;;;14.40;99.90;;;;;;5022522;28;20578;-66
2023/05/01 04:32:13;;;;;;;8.93;8.13;;;14.40;99.90;;;;;;5022206;28;20268;-67
2023/05/01 04:34:38;;;;;;;10.47;9.40;;;14.30;99.90;;;;;;5021954;28;20192;-67
2023/05/01 04:37:06;;;;;;;10.43;7.80;;;14.30;99.90;;;;;;5022163;28;20207;-67
2023/05/01 04:39:32;;;;;;;8.40;7.60;;;14.30;99.90;;;;;;5024982;28;20278;-67
2023/05/01 04:41:57;;;;;;;10.00;8.23;;;14.30;99.90;;;;;;5022041;28;20436;-66
2023/05/01 04:44:23;;;;;;;8.63;7.83;;;14.30;99.90;;;;;;5022400;28;20181;-67
2023/05/01 04:46:49;;;;;;;8.70;7.80;;;14.30;99.90;;;;;;5019694;28;20681;-67
2023/05/01 04:49:14;;;;;;;11.40;8.70;;;14.30;99.90;;;;;;5023831;28;20790;-67
2023/05/01 04:51:40;;;;;;;9.10;8.13;;;14.30;99.90;;;;;;5018375;28;20185;-67
2023/05/01 04:54:05;;;;;;;8.33;7.53;;;14.30;99.90;;;;;;5026256;28;20184;-67
2023/05/01 04:56:31;;;;;;;8.40;7.60;;;14.30;99.90;;;;;;5020258;28;20211;-67
2023/05/01 04:58:57;;;;;;;11.13;7.57;;;14.30;99.90;;;;;;5026201;28;20610;-67
2023/05/01 05:01:22;;;;;;;9.50;8.50;;;14.30;99.90;;;;;;5022756;28;20255;-67
2023/05/01 05:03:48;;;;;;;10.67;7.80;;;14.40;99.90;;;;;;5025998;28;20177;-67
2023/05/01 05:06:13;;;;;;;9.27;8.30;;;14.40;99.90;;;;;;5022399;28;20168;-67
2023/05/01 05:08:39;;;;;;;9.63;8.20;;;14.40;99.90;;;;;;5023086;28;20197;-67
2023/05/01 05:11:05;;;;;;;8.63;7.83;;;14.40;99.90;;;;;;5024928;28;20174;-67
2023/05/01 05:13:30;;;;;;;8.40;7.60;;;14.40;99.90;;;;;;5021576;28;20168;-66
2023/05/01 05:15:56;;;;;;;8.90;7.30;;;14.50;99.90;;;;;;5019403;28;20615;-67
2023/05/01 05:18:21;;;;;;;7.97;7.17;;;14.50;99.90;;;;;;5022430;28;20295;-67
2023/05/01 05:20:47;;;;;;;8.30;7.50;;;14.50;99.90;;;;;;5019902;28;20176;-66
2023/05/01 05:23:13;;;;;;;9.17;7.47;;;14.50;99.90;;;;;;5019786;28;20278;-67
2023/05/01 05:25:38;;;;;;;9.27;8.37;;;14.60;99.90;;;;;;5022192;28;20184;-67
2023/05/01 05:28:04;;;;;;;8.00;7.20;;;14.60;99.90;;;;;;5022933;28;20204;-67
2023/05/01 05:30:29;;;;;;;8.70;7.90;;;14.70;99.90;;;;;;5019347;28;20266;-67
2023/05/01 05:32:55;;;;;;;7.83;7.03;;;14.80;99.90;;;;;;5021748;28;20267;-67
2023/05/01 05:35:21;;;;;;;7.20;6.60;;;14.80;99.90;;;;;;5018449;28;20185;-66
2023/05/01 05:37:46;;;;;;;8.87;7.73;;;14.90;99.90;;;;;;5024766;28;20216;-67
2023/05/01 05:40:12;;;;;;;8.80;7.90;;;15.00;99.90;;;;;;5020977;28;20193;-67
2023/05/01 05:42:38;;;;;;;11.57;7.70;;;15.10;99.90;;;;;;5023262;28;20181;-67
2023/05/01 05:45:05;;;;;;;9.50;7.50;;;15.20;99.90;;;;;;5020810;28;20956;-67
2023/05/01 05:47:30;;;;;;;8.90;7.93;;;15.20;99.90;;;;;;5022563;28;20231;-67
2023/05/01 05:49:56;;;;;;;9.00;8.00;;;15.30;99.90;;;;;;5020362;28;20442;-66
2023/05/01 05:52:21;;;;;;;9.60;8.00;;;15.40;99.90;;;;;;5023761;28;20554;-66
2023/05/01 05:54:47;;;;;;;8.10;7.30;;;15.40;99.90;;;;;;5018687;28;20181;-67
2023/05/01 05:57:13;;;;;;;9.27;7.33;;;15.40;99.90;;;;;;5020838;28;20208;-67
2023/05/01 05:59:38;;;;;;;8.97;7.37;;;15.40;99.90;;;;;;5022744;28;20450;-67
2023/05/01 06:02:04;;;;;;;8.70;7.67;;;15.40;99.90;;;;;;5020984;28;20932;-67
2023/05/01 06:04:29;;;;;;;8.03;7.33;;;15.50;99.90;;;;;;5020146;28;20180;-67
2023/05/01 06:06:56;;;;;;;8.70;7.80;;;15.50;99.90;;;;;;5019662;28;20212;-66
2023/05/01 06:09:22;;;;;;;8.20;7.40;;;15.50;99.90;;;;;;5022723;28;20207;-66
2023/05/01 06:11:47;;;;;;;8.63;7.40;;;15.50;99.90;;;;;;5022097;28;20439;-67
2023/05/01 06:14:14;;;;;;;8.03;7.23;;;15.60;99.90;;;;;;5023065;28;20181;-67
2023/05/01 06:16:40;;;;;;;8.17;7.47;;;15.60;99.90;;;;;;5017619;28;20200;-67
2023/05/01 06:19:06;;;;;;;8.17;7.47;;;15.60;99.90;;;;;;5020324;28;20450;-67
2023/05/01 06:21:33;;;;;;;8.43;7.57;;;15.60;99.90;;;;;;5024404;28;20439;-67
2023/05/01 06:23:58;;;;;;;7.33;6.63;;;15.60;99.90;;;;;;5018667;28;20968;-67
2023/05/01 06:26:25;;;;;;;8.50;7.60;;;15.60;99.90;;;;;;5023281;28;20506;-66
2023/05/01 06:28:50;;;;;;;9.80;7.67;;;15.70;99.90;;;;;;5017801;28;20212;-66
2023/05/01 06:31:16;;;;;;;7.43;6.70;;;15.70;99.90;;;;;;5026476;28;20830;-67
2023/05/01 06:33:41;;;;;;;11.03;7.63;;;15.60;99.90;;;;;;5018758;28;20283;-66
2023/05/01 06:36:07;;;;;;;7.30;6.60;;;15.60;99.90;;;;;;5022800;28;20200;-67
2023/05/01 06:38:33;;;;;;;8.10;7.30;;;15.60;99.90;;;;;;5025434;28;20193;-66
2023/05/01 06:40:58;;;;;;;7.20;6.57;;;15.60;99.90;;;;;;5022976;28;20573;-67
2023/05/01 06:43:29;;;;;;;7.70;7.00;;;15.60;99.90;;;;;;5023425;28;20435;-67
2023/05/01 06:45:55;;;;;;;7.50;6.60;;;15.60;99.90;;;;;;5021984;28;20184;-67
2023/05/01 06:48:21;;;;;;;7.57;6.73;;;15.60;99.90;;;;;;5019691;28;21142;-67
2023/05/01 06:50:46;;;;;;;7.07;6.37;;;15.70;99.90;;;;;;5019921;28;20193;-67
2023/05/01 06:53:12;;;;;;;7.43;6.73;;;15.60;99.90;;;;;;5022782;28;20264;-67
2023/05/01 06:55:37;;;;;;;7.90;7.20;;;15.70;99.90;;;;;;5024169;28;20185;-67
2023/05/01 06:58:04;;;;;;;7.67;6.97;;;15.70;99.90;;;;;;5019519;28;20386;-67
2023/05/01 07:00:29;;;;;;;9.70;6.70;;;15.80;99.90;;;;;;5023624;28;20204;-67
2023/05/01 07:02:55;;;;;;;8.60;7.20;;;15.80;99.90;;;;;;5020357;28;20463;-67
2023/05/01 07:05:21;;;;;;;7.10;6.47;;;15.80;99.90;;;;;;5019871;28;20223;-66
2023/05/01 07:07:48;;;;;;;7.97;7.03;;;15.90;99.90;;;;;;5021626;28;20249;-66
2023/05/01 07:10:13;;;;;;;7.17;6.57;;;15.90;99.90;;;;;;5024157;28;20415;-66
2023/05/01 07:12:40;;;;;;;10.40;8.70;;;15.90;99.90;;;;;;5020482;28;20522;-67
2023/05/01 07:15:06;;;;;;;8.00;7.20;;;16.00;99.90;;;;;;5023316;28;20487;-67
2023/05/01 07:17:32;;;;;;;7.10;6.50;;;16.00;99.90;;;;;;5024765;28;20208;-67
2023/05/01 07:19:59;;;;;;;8.30;7.30;;;16.10;99.90;;;;;;5016509;28;20439;-67
2023/05/01 07:22:25;;;;;;;7.53;6.83;;;16.10;99.90;;;;;;5020141;28;20494;-67
2023/05/01 07:24:50;;;;;;;8.07;7.30;;;16.20;99.90;;;;;;5021908;28;20446;-67
2023/05/01 07:27:16;;;;;;;8.47;7.60;;;16.20;99.90;;;;;;5019472;28;20188;-67
2023/05/01 07:29:41;;;;;;;8.30;6.80;;;16.30;99.90;;;;;;5017898;28;20224;-67
2023/05/01 07:32:07;;;;;;;10.50;7.77;;;16.30;99.90;;;;;;5017656;28;20188;-67
2023/05/01 07:34:33;;;;;;;9.03;6.97;;;16.40;99.90;;;;;;5021482;28;20888;-67
2023/05/01 07:36:58;;;;;;;8.93;8.00;;;16.40;99.90;;;;;;5020649;28;20199;-68
2023/05/01 07:39:25;;;;;;;8.03;7.20;;;16.50;99.90;;;;;;5025680;28;21049;-67
2023/05/01 07:41:50;;;;;;;8.17;7.10;;;16.50;99.90;;;;;;5022805;28;20212;-68
2023/05/01 07:44:16;;;;;;;7.03;6.33;;;16.60;99.90;;;;;;5019436;28;20443;-67
2023/05/01 07:46:42;;;;;;;6.93;6.23;;;16.50;99.90;;;;;;5025924;28;20199;-67
2023/05/01 07:49:07;;;;;;;7.30;6.60;;;16.60;99.90;;;;;;5021225;28;20287;-67
2023/05/01 07:51:33;;;;;;;9.40;6.67;;;16.70;99.90;;;;;;5018962;28;20703;-68
2023/05/01 07:54:03;;;;;;;6.80;6.10;;;16.60;99.90;;;;;;5015091;28;20197;-66
2023/05/01 07:56:31;;;;;;;6.83;6.20;;;16.70;99.90;;;;;;5017884;28;20208;-66
2023/05/01 07:58:57;;;;;;;7.70;7.00;;;16.90;99.90;;;;;;5015522;28;21185;-66
2023/05/01 08:01:23;;;;;;;6.63;6.03;;;16.90;99.90;;;;;;5014990;28;20446;-66
2023/05/01 08:03:48;;;;;;;6.10;5.60;;;16.80;99.90;;;;;;5020913;28;20185;-66
2023/05/01 08:06:14;;;;;;;7.43;6.73;;;16.90;99.90;;;;;;5022377;28;20250;-66
2023/05/01 08:08:39;;;;;;;6.93;6.33;;;17.00;99.90;;;;;;5016489;28;20594;-66
2023/05/01 08:11:05;;;;;;;7.93;7.13;;;17.00;99.90;;;;;;5023853;28;20176;-66
2023/05/01 08:13:30;;;;;;;7.70;7.00;;;17.10;99.90;;;;;;5018504;28;20214;-66
2023/05/01 08:16:03;;;;;;;7.90;7.10;;;17.20;99.90;;;;;;5022777;28;20764;-67
2023/05/01 08:18:29;;;;;;;7.60;6.90;;;17.10;99.90;;;;;;5020809;28;21467;-66
2023/05/01 08:20:55;;;;;;;7.23;6.53;;;17.10;99.90;;;;;;5017176;28;20964;-66
2023/05/01 08:23:21;;;;;;;8.63;6.47;;;17.30;99.90;;;;;;5024692;28;20419;-66
2023/05/01 08:25:49;;;;;;;7.33;6.73;;;17.30;99.90;;;;;;5019143;28;20189;-66
2023/05/01 08:28:15;;;;;;;8.00;7.20;;;17.30;99.90;;;;;;5019538;28;20242;-66
2023/05/01 08:30:41;;;;;;;9.33;8.20;;;17.30;99.90;;;;;;5020573;28;20472;-67
2023/05/01 08:33:07;;;;;;;10.10;7.87;;;17.20;99.90;;;;;;5017433;28;21123;-66
2023/05/01 08:35:32;;;;;;;8.93;8.03;;;17.00;99.90;;;;;;5013305;28;20435;-66
2023/05/01 08:37:58;;;;;;;9.30;7.37;;;16.90;99.90;;;;;;5016421;28;20251;-66
2023/05/01 08:40:25;;;;;;;9.67;8.70;;;16.90;99.90;;;;;;5008592;28;20204;-66
2023/05/01 08:42:51;;;;;;;8.80;7.93;;;16.80;99.90;;;;;;5012099;28;20192;-66
2023/05/01 08:45:20;;;;;;;9.67;8.33;;;16.80;99.90;;;;;;5011555;28;20439;-66
2023/05/01 08:47:48;;;;;;;9.17;8.27;;;16.90;99.90;;;;;;5010405;28;20327;-67
2023/05/01 08:50:16;;;;;;;10.10;9.20;;;17.00;99.90;;;;;;5013019;28;21068;-66
2023/05/01 08:52:42;;;;;;;9.53;8.63;;;17.10;99.90;;;;;;5015018;28;20463;-66
2023/05/01 08:55:14;;;;;;;9.70;8.70;;;16.90;99.90;;;;;;5015211;28;20840;-67
2023/05/01 08:57:44;;;;;;;10.33;7.80;;;16.80;99.90;;;;;;5016974;28;20845;-67
2023/05/01 09:00:16;;;;;;;8.97;8.17;;;16.70;99.90;;;;;;5011322;28;21027;-65
2023/05/01 09:02:44;;;;;;;11.07;7.50;;;16.80;99.90;;;;;;5010720;28;20438;-66
2023/05/01 09:05:12;;;;;;;8.13;7.43;;;17.00;99.90;;;;;;5010099;28;20459;-66
2023/05/01 09:07:38;;;;;;;7.80;7.00;;;17.10;99.90;;;;;;5010015;28;20910;-66
2023/05/01 09:10:05;;;;;;;8.23;7.43;;;17.30;99.90;;;;;;5013602;28;21073;-66
2023/05/01 09:12:34;;;;;;;7.53;6.83;;;17.30;99.90;;;;;;5008358;28;20680;-66
2023/05/01 09:15:01;;;;;;;7.80;7.00;;;17.30;99.90;;;;;;5013175;28;20450;-66
2023/05/01 09:17:29;;;;;;;8.27;7.57;;;17.30;99.90;;;;;;5014430;28;20833;-66
2023/05/01 09:19:55;;;;;;;7.90;7.17;;;17.50;99.90;;;;;;5012014;28;20485;-66
2023/05/01 09:22:20;;;;;;;9.20;7.57;;;17.60;99.90;;;;;;5014130;28;20522;-66
2023/05/01 09:24:46;;;;;;;11.07;7.37;;;17.50;99.90;;;;;;5007625;28;20768;-66
2023/05/01 09:27:12;;;;;;;8.60;7.70;;;17.60;99.90;;;;;;5012891;28;20188;-66
2023/05/01 09:29:46;;;;;;;8.23;7.43;;;17.50;99.90;;;;;;5015254;28;20315;-66
2023/05/01 09:32:15;;;;;;;7.97;7.17;;;17.60;99.90;;;;;;5011344;28;20513;-66
2023/05/01 09:34:42;;;;;;;9.27;8.40;;;17.60;99.90;;;;;;5011551;28;20435;-67
2023/05/01 09:37:12;;;;;;;8.30;7.50;;;17.60;99.90;;;;;;5008393;28;20772;-67
2023/05/01 09:39:38;;;;;;;8.60;6.83;;;17.60;99.90;;;;;;5011509;28;20483;-66
2023/05/01 09:42:03;;;;;;;8.00;7.30;;;17.60;99.90;;;;;;5011896;28;20812;-66
2023/05/01 09:44:29;;;;;;;8.20;7.50;;;17.50;99.90;;;;;;5015616;28;20260;-66
2023/05/01 09:46:55;;;;;;;8.17;7.43;;;17.70;99.90;;;;;;5009325;28;20855;-66
2023/05/01 09:49:44;;;;;;;7.70;7.00;;;17.70;99.90;;;;;;5015936;28;20243;-66
2023/05/01 09:52:10;;;;;;;8.17;7.47;;;17.70;99.90;;;;;;5016407;28;20658;-66
2023/05/01 09:54:36;;;;;;;7.50;6.80;;;17.50;99.90;;;;;;5013291;28;20976;-65
2023/05/01 09:57:02;;;;;;;8.60;7.67;;;17.40;99.90;;;;;;5014035;28;20466;-65
2023/05/01 09:59:30;;;;;;;8.40;7.60;;;17.40;99.90;;;;;;5008926;28;20240;-65
2023/05/01 10:01:55;;;;;;;8.87;8.00;;;17.30;99.90;;;;;;5011470;28;20420;-65
2023/05/01 10:04:31;;;;;;;9.33;8.37;;;17.20;99.90;;;;;;5016662;28;20526;-65
2023/05/01 10:07:11;;;;;;;8.97;8.07;;;17.20;99.90;;;;;;5011606;28;20189;-65
2023/05/01 10:09:37;;;;;;;11.20;8.30;;;17.40;99.90;;;;;;5006164;28;20459;-67
2023/05/01 10:12:03;;;;;;;10.63;8.73;;;17.40;99.90;;;;;;5013906;28;20455;-67
2023/05/01 10:14:29;;;;;;;8.83;8.03;;;17.40;99.90;;;;;;5015926;28;20268;-67
2023/05/01 10:16:58;;;;;;;8.87;7.80;;;17.30;99.90;;;;;;5020976;28;20584;-67
2023/05/01 10:19:24;;;;;;;9.17;8.27;;;17.40;99.90;;;;;;5014915;28;20513;-67
2023/05/01 10:21:49;;;;;;;8.80;8.00;;;17.40;99.90;;;;;;5014281;28;20443;-67
2023/05/01 10:24:15;;;;;;;9.10;8.00;;;17.20;99.90;;;;;;5012742;28;20479;-66
2023/05/01 10:26:44;;;;;;;8.83;7.93;;;17.00;99.90;;;;;;5019064;28;20208;-65
2023/05/01 10:29:11;;;;;;;9.37;8.40;;;17.20;99.90;;;;;;5013277;28;20471;-68
2023/05/01 10:31:37;;;;;;;8.70;7.90;;;17.20;99.90;;;;;;5019649;28;20990;-68
2023/05/01 10:34:03;;;;;;;10.07;8.47;;;17.40;99.90;;;;;;5014479;28;20554;-67
2023/05/01 10:36:43;;;;;;;10.40;8.40;;;17.60;99.90;;;;;;5018474;28;20240;-66
2023/05/01 10:39:36;;;;;;;9.27;8.37;;;17.80;99.90;;;;;;5012135;28;20588;-67
2023/05/01 10:42:03;;;;;;;9.40;8.13;;;17.90;99.90;;;;;;5017762;28;20886;-67
2023/05/01 10:44:29;;;;;;;9.70;8.80;;;18.00;99.90;;;;;;5017670;28;20497;-66
2023/05/01 10:46:55;;;;;;;9.70;8.70;;;18.00;99.90;;;;;;5018964;28;20443;-67
2023/05/01 10:49:21;;;;;;;10.00;9.10;;;18.20;99.90;;;;;;5017848;28;20551;-68
2023/05/01 10:51:56;;;;;;;9.57;8.53;;;18.30;99.90;;;;;;5011153;28;20216;-69
2023/05/01 10:54:29;;;;;;;10.23;9.23;;;18.60;99.90;;;;;;5016296;28;20194;-68
2023/05/01 10:57:02;;;;;;;10.23;8.50;;;18.90;99.90;;;;;;5014225;28;20459;-68
2023/05/01 11:00:02;;;;;;;9.00;8.10;;;18.90;99.90;;;;;;5011758;28;20940;-69
2023/05/01 11:02:29;;;;;;;9.07;8.20;;;19.10;99.90;;;;;;5005492;28;20447;-66
2023/05/01 11:04:55;;;;;;;10.00;9.10;;;19.30;99.90;;;;;;5014178;28;20440;-65
2023/05/01 11:07:21;;;;;;;8.33;7.53;;;19.00;99.90;;;;;;5016760;28;21061;-64
2023/05/01 11:09:54;;;;;;;8.30;7.50;;;19.00;99.90;;;;;;5009818;28;20458;-66
2023/05/01 11:12:47;;;;;;;8.07;7.27;;;18.90;99.90;;;;;;5011245;28;20953;-65
2023/05/01 11:15:32;;;;;;;7.13;6.43;;;18.60;99.90;;;;;;5016663;28;20439;-66
2023/05/01 11:17:59;;;;;;;7.63;6.83;;;18.70;99.90;;;;;;5010402;28;21054;-65
2023/05/01 11:20:25;;;;;;;7.23;6.53;;;18.60;99.90;;;;;;5015008;28;20489;-66
2023/05/01 11:22:52;;;;;;;7.03;6.33;;;18.90;99.90;;;;;;5012802;28;20944;-64
2023/05/01 11:25:31;;;;;;;6.97;6.27;;;18.80;99.90;;;;;;5013544;28;20184;-66
2023/05/01 11:27:59;;;;;;;6.60;5.97;;;18.80;99.90;;;;;;5015034;28;20502;-65
2023/05/01 11:30:25;;;;;;;8.50;7.70;;;19.10;99.90;;;;;;5016426;28;20449;-65
2023/05/01 11:32:51;;;;;;;7.23;6.23;;;18.90;99.90;;;;;;5017876;28;20439;-65
2023/05/01 11:35:21;;;;;;;11.70;7.50;;;19.20;99.90;;;;;;5014139;28;20271;-65
2023/05/01 11:37:49;;;;;;;10.20;7.43;;;19.40;99.90;;;;;;5016074;28;20212;-64
2023/05/01 11:40:33;;;;;;;7.63;6.87;;;19.50;99.90;;;;;;5013492;28;20486;-65
2023/05/01 11:43:03;;;;;;;8.43;7.63;;;19.30;99.90;;;;;;5016148;28;20928;-65
2023/05/01 11:45:29;;;;;;;9.83;8.30;;;19.30;99.90;;;;;;5015118;28;20455;-65
2023/05/01 11:47:55;;;;;;;8.00;7.30;;;19.40;99.90;;;;;;5018516;28;20459;-65
2023/05/01 11:50:21;;;;;;;9.20;7.43;;;19.60;99.90;;;;;;5017370;28;20443;-65
2023/05/01 11:52:48;;;;;;;7.77;7.07;;;19.40;99.90;;;;;;5021644;28;20191;-64
2023/05/01 11:55:15;;;;;;;8.03;7.30;;;19.60;99.90;;;;;;5018777;28;20916;-65
2023/05/01 11:57:52;;;;;;;8.97;8.07;;;19.50;99.90;;;;;;5019439;28;20573;-65
2023/05/01 12:00:32;;;;;;;8.73;7.60;;;19.80;99.90;;;;;;5019912;28;20435;-65
2023/05/01 12:03:12;;;;;;;7.77;6.97;;;19.90;99.90;;;;;;5019524;28;20431;-66
2023/05/01 12:05:39;;;;;;;7.80;7.10;;;20.10;99.90;;;;;;5018304;28;20462;-65
2023/05/01 12:08:21;;;;;;;7.77;7.03;;;20.00;99.90;;;;;;5019512;28;20459;-65
2023/05/01 12:10:51;;;;;;;9.67;8.77;;;20.10;99.90;;;;;;5020324;28;20423;-66
2023/05/01 12:13:17;;;;;;;10.00;8.43;;;19.90;99.90;;;;;;5017299;28;20430;-65
2023/05/01 12:15:44;;;;;;;9.10;8.20;;;20.10;99.90;;;;;;5018769;28;20427;-65
2023/05/01 12:18:14;;;;;;;9.83;8.20;;;20.40;99.90;;;;;;5022282;28;20505;-65
2023/05/01 12:20:54;;;;;;;10.80;9.50;;;20.60;99.90;;;;;;5015168;28;20462;-67
2023/05/01 12:23:36;;;;;;;10.60;9.50;;;20.40;99.90;;;;;;5007659;28;20466;-67
2023/05/01 12:26:14;;;;;;;11.80;10.63;;;20.30;99.90;;;;;;5013918;28;20528;-66
2023/05/01 12:29:01;;;;;;;10.97;9.97;;;20.30;99.90;;;;;;5008148;28;20454;-66
2023/05/01 12:31:28;;;;;;;11.13;10.13;;;20.20;99.90;;;;;;5012513;28;20902;-66
2023/05/01 12:33:54;;;;;;;11.80;10.60;;;20.20;99.90;;;;;;5014934;28;21301;-66
2023/05/01 12:36:24;;;;;;;11.13;10.00;;;20.10;99.90;;;;;;5023397;28;20461;-66
2023/05/01 12:39:07;;;;;;;11.00;10.00;;;20.10;99.90;;;;;;5004510;28;20474;-65
2023/05/01 12:41:45;;;;;;;11.90;10.80;;;20.10;99.90;;;;;;5016035;28;20467;-66
2023/05/01 12:44:21;;;;;;;11.07;10.07;;;20.10;99.90;;;;;;5017453;28;21568;-66
2023/05/01 12:46:53;;;;;;;10.20;9.20;;;20.10;99.90;;;;;;5016548;28;21123;-66
2023/05/01 12:49:19;;;;;;;10.50;9.50;;;20.10;99.90;;;;;;5016068;28;20596;-66
2023/05/01 12:51:50;;;;;;;10.43;9.33;;;20.20;99.90;;;;;;5015120;28;20443;-66